Лутовиново

Карта отелей и гостиниц, располагающихся рядом с аэропортом Лутовиново :



Лутовиново
Волоконовка
Белгородская область 50° 33' 59.112" N, 37° 57' 1.836" E
Код аэродрома ИКАО: 
ZF5R
Код аэродрома RU: 
ЗФ5Р
Координаты: 
N50.56642° E037.95051°
Превышение над уровнем моря : 
Основная полоса: 
11/29
Курс магнитный: 
109,3/289,3
Длина основной ВПП: 
395
Ширина основной ВПП: 
21
Покрытие основной ВПП: 
Твёрдое
Тип: 
Аэродром
Освещение ВПП: 
Нет
Класс аэродрома: 
Статус: 
Недействующий
Принадлежность: 
ГА
Сайт: 
E-mail аэродрома: 
Страна: 
Россия
Регион: 
Белгородская область
Город: 
Волоконовка
Дополнительная информация: 
Застроенная площадка АХР.

Найти трансфер

С помощью этой формы Вы можете найти трансфер из аэропорта Лутовиново в город, аэропорт или вокзал:

Карта места

Javascript is required to view this map.

Погода в аэропортах:

Авиационная погода в Витебске

Регион: 
Погода METAR: 
UMII 041400Z 29003MPS 7000 -SHRA BKN017CB 15/14 Q1002 TEMPO 2000 TSRA BKN005
Время наблюдения: 
2020-06-04T14:00:00Z
Температура C: 
15.0
Точка росы: 
14.0
Направление ветра: 
290
Скорость ветра: 
6
Метеорологическая видимость: 
4.35
Явления погоды: 
-SHRA
Условия полета: 
MVFR

Авиационная погода в Минеральные Воды

Регион: 
Погода METAR: 
URMM 042300Z 27006MPS 9999 -TSRA BKN057CB 16/13 Q1017 R12/090070 TEMPO 1000 TSRAGR BKN003 BKN020CB RMK QFE734/0979
Время наблюдения: 
2020-06-04T23:00:00Z
Температура C: 
16.0
Точка росы: 
13.0
Направление ветра: 
270
Скорость ветра: 
12
Метеорологическая видимость: 
6.21
Явления погоды: 
-TSRA
Условия полета: 
VFR
Аэропорт подробнее: 

Авиационная погода в Нижнем Новгороде

Регион: 
Погода METAR: 
UWGG 042300Z 00000MPS 5000 1000NE R18L/1800D BR NSC 11/11 Q1011 R18L/190060 TEMPO 0500 FG
Время наблюдения: 
2020-06-04T23:00:00Z
Температура C: 
11.0
Точка росы: 
11.0
Направление ветра: 
0
Скорость ветра: 
0
Метеорологическая видимость: 
3.11
Явления погоды: 
BR
Условия полета: 
MVFR

Авиационная погода в Курске

Погода METAR: 
UUOK 041700Z 25009G14MPS 9999 -SHRA BKN033CB 13/08 Q1010 R12/CLRD65 NOSIG RMK QFE739/0986
Время наблюдения: 
2020-06-04T17:00:00Z
Температура C: 
13.0
Точка росы: 
8.0
Направление ветра: 
250
Скорость ветра: 
17
Метеорологическая видимость: 
6.21
Явления погоды: 
-SHRA
Условия полета: 
VFR
Аэропорт подробнее: